sensor_id;sensor_type;location;lat;lon;timestamp;temperature;humidity
54431;DHT22;40342;52.998;5.862;2022-07-29T00:01:06;16.00;99.90
54431;DHT22;40342;52.998;5.862;2022-07-29T00:03:32;16.00;99.90
54431;DHT22;40342;52.998;5.862;2022-07-29T00:05:58;16.00;99.90
54431;DHT22;40342;52.998;5.862;2022-07-29T00:08:23;16.00;99.90
54431;DHT22;40342;52.998;5.862;2022-07-29T00:10:49;16.00;99.90
54431;DHT22;40342;52.998;5.862;2022-07-29T00:13:15;16.00;99.90
54431;DHT22;40342;52.998;5.862;2022-07-29T00:15:41;16.00;99.90
54431;DHT22;40342;52.998;5.862;2022-07-29T00:18:06;15.90;99.90
54431;DHT22;40342;52.998;5.862;2022-07-29T00:20:32;15.90;99.90
54431;DHT22;40342;52.998;5.862;2022-07-29T00:22:57;15.90;99.90
54431;DHT22;40342;52.998;5.862;2022-07-29T00:25:23;15.90;99.90
54431;DHT22;40342;52.998;5.862;2022-07-29T00:27:49;15.90;99.90
54431;DHT22;40342;52.998;5.862;2022-07-29T00:30:14;15.90;99.90
54431;DHT22;40342;52.998;5.862;2022-07-29T00:32:40;15.90;99.90
54431;DHT22;40342;52.998;5.862;2022-07-29T00:35:06;15.90;99.90
54431;DHT22;40342;52.998;5.862;2022-07-29T00:37:51;15.90;99.90
54431;DHT22;40342;52.998;5.862;2022-07-29T00:40:16;15.90;99.90
54431;DHT22;40342;52.998;5.862;2022-07-29T00:42:50;15.90;99.90
54431;DHT22;40342;52.998;5.862;2022-07-29T00:45:17;15.90;99.90
54431;DHT22;40342;52.998;5.862;2022-07-29T00:47:43;15.90;99.90
54431;DHT22;40342;52.998;5.862;2022-07-29T00:50:10;15.90;99.90
54431;DHT22;40342;52.998;5.862;2022-07-29T00:52:38;15.90;99.90
54431;DHT22;40342;52.998;5.862;2022-07-29T00:55:06;15.90;99.90
54431;DHT22;40342;52.998;5.862;2022-07-29T00:57:33;15.90;99.90
54431;DHT22;40342;52.998;5.862;2022-07-29T00:59:58;15.90;99.90
54431;DHT22;40342;52.998;5.862;2022-07-29T01:02:24;15.90;99.90
54431;DHT22;40342;52.998;5.862;2022-07-29T01:04:50;15.90;99.90
54431;DHT22;40342;52.998;5.862;2022-07-29T01:07:17;15.80;99.90
54431;DHT22;40342;52.998;5.862;2022-07-29T01:09:44;15.80;99.90
54431;DHT22;40342;52.998;5.862;2022-07-29T01:12:11;15.80;99.90
54431;DHT22;40342;52.998;5.862;2022-07-29T01:14:39;15.80;99.90
54431;DHT22;40342;52.998;5.862;2022-07-29T01:17:23;15.80;99.90
54431;DHT22;40342;52.998;5.862;2022-07-29T01:22:53;15.80;99.90
54431;DHT22;40342;52.998;5.862;2022-07-29T01:25:38;15.80;99.90
54431;DHT22;40342;52.998;5.862;2022-07-29T01:28:35;15.80;99.90
54431;DHT22;40342;52.998;5.862;2022-07-29T01:31:04;15.80;99.90
54431;DHT22;40342;52.998;5.862;2022-07-29T01:33:32;15.80;99.90
54431;DHT22;40342;52.998;5.862;2022-07-29T01:36:18;15.80;99.90
54431;DHT22;40342;52.998;5.862;2022-07-29T01:38:54;15.80;99.90
54431;DHT22;40342;52.998;5.862;2022-07-29T01:41:24;15.80;99.90
54431;DHT22;40342;52.998;5.862;2022-07-29T01:43:54;15.80;99.90
54431;DHT22;40342;52.998;5.862;2022-07-29T01:46:27;15.80;99.90
54431;DHT22;40342;52.998;5.862;2022-07-29T01:49:02;15.80;99.90
54431;DHT22;40342;52.998;5.862;2022-07-29T01:51:43;15.80;99.90
54431;DHT22;40342;52.998;5.862;2022-07-29T01:57:04;15.70;99.90
54431;DHT22;40342;52.998;5.862;2022-07-29T01:59:33;15.70;99.90
54431;DHT22;40342;52.998;5.862;2022-07-29T02:02:00;15.70;99.90
54431;DHT22;40342;52.998;5.862;2022-07-29T02:04:27;15.80;99.90
54431;DHT22;40342;52.998;5.862;2022-07-29T02:06:58;15.70;99.90
54431;DHT22;40342;52.998;5.862;2022-07-29T02:09:26;15.70;99.90
54431;DHT22;40342;52.998;5.862;2022-07-29T02:11:53;15.70;99.90
54431;DHT22;40342;52.998;5.862;2022-07-29T02:14:22;15.70;99.90
54431;DHT22;40342;52.998;5.862;2022-07-29T02:16:51;15.80;99.90
54431;DHT22;40342;52.998;5.862;2022-07-29T02:19:18;15.70;99.90
54431;DHT22;40342;52.998;5.862;2022-07-29T02:21:45;15.70;99.90
54431;DHT22;40342;52.998;5.862;2022-07-29T02:24:12;15.70;99.90
54431;DHT22;40342;52.998;5.862;2022-07-29T02:26:40;15.70;99.90
54431;DHT22;40342;52.998;5.862;2022-07-29T02:29:07;15.70;99.90
54431;DHT22;40342;52.998;5.862;2022-07-29T02:31:34;15.70;99.90
54431;DHT22;40342;52.998;5.862;2022-07-29T02:34:03;15.60;99.90
54431;DHT22;40342;52.998;5.862;2022-07-29T02:36:31;15.70;99.90
54431;DHT22;40342;52.998;5.862;2022-07-29T02:38:58;15.60;99.90
54431;DHT22;40342;52.998;5.862;2022-07-29T02:41:41;15.60;99.90
54431;DHT22;40342;52.998;5.862;2022-07-29T02:44:18;15.60;99.90
54431;DHT22;40342;52.998;5.862;2022-07-29T02:49:45;15.50;99.90
54431;DHT22;40342;52.998;5.862;2022-07-29T02:52:19;15.50;99.90
54431;DHT22;40342;52.998;5.862;2022-07-29T02:57:32;15.50;99.90
54431;DHT22;40342;52.998;5.862;2022-07-29T03:00:02;15.50;99.90
54431;DHT22;40342;52.998;5.862;2022-07-29T03:02:34;15.50;99.90
54431;DHT22;40342;52.998;5.862;2022-07-29T03:05:02;15.50;99.90
54431;DHT22;40342;52.998;5.862;2022-07-29T03:07:28;15.40;99.90
54431;DHT22;40342;52.998;5.862;2022-07-29T03:09:54;15.40;99.90
54431;DHT22;40342;52.998;5.862;2022-07-29T03:12:21;15.40;99.90
54431;DHT22;40342;52.998;5.862;2022-07-29T03:14:48;15.50;99.90
54431;DHT22;40342;52.998;5.862;2022-07-29T03:17:14;15.50;99.90
54431;DHT22;40342;52.998;5.862;2022-07-29T03:19:40;15.40;99.90
54431;DHT22;40342;52.998;5.862;2022-07-29T03:22:07;15.50;99.90
54431;DHT22;40342;52.998;5.862;2022-07-29T03:24:34;15.40;99.90
54431;DHT22;40342;52.998;5.862;2022-07-29T03:27:01;15.40;99.90
54431;DHT22;40342;52.998;5.862;2022-07-29T03:29:26;15.40;99.90
54431;DHT22;40342;52.998;5.862;2022-07-29T03:31:52;15.40;99.90
54431;DHT22;40342;52.998;5.862;2022-07-29T03:34:18;15.50;99.90
54431;DHT22;40342;52.998;5.862;2022-07-29T03:36:44;15.40;99.90
54431;DHT22;40342;52.998;5.862;2022-07-29T03:39:12;15.40;99.90
54431;DHT22;40342;52.998;5.862;2022-07-29T03:41:42;15.40;99.90
54431;DHT22;40342;52.998;5.862;2022-07-29T03:44:09;15.40;99.90
54431;DHT22;40342;52.998;5.862;2022-07-29T03:46:35;15.40;99.90
54431;DHT22;40342;52.998;5.862;2022-07-29T03:49:03;15.40;99.90
54431;DHT22;40342;52.998;5.862;2022-07-29T03:51:30;15.40;99.90
54431;DHT22;40342;52.998;5.862;2022-07-29T03:53:56;15.40;99.90
54431;DHT22;40342;52.998;5.862;2022-07-29T03:56:23;15.40;99.90
54431;DHT22;40342;52.998;5.862;2022-07-29T03:58:52;15.40;99.90
54431;DHT22;40342;52.998;5.862;2022-07-29T04:01:19;15.40;99.90
54431;DHT22;40342;52.998;5.862;2022-07-29T04:03:45;15.40;99.90
54431;DHT22;40342;52.998;5.862;2022-07-29T04:06:11;15.30;99.90
54431;DHT22;40342;52.998;5.862;2022-07-29T04:08:37;15.30;99.90
54431;DHT22;40342;52.998;5.862;2022-07-29T04:11:04;15.30;99.90
54431;DHT22;40342;52.998;5.862;2022-07-29T04:13:32;15.30;99.90
54431;DHT22;40342;52.998;5.862;2022-07-29T04:15:57;15.30;99.90
54431;DHT22;40342;52.998;5.862;2022-07-29T04:18:24;15.30;99.90
54431;DHT22;40342;52.998;5.862;2022-07-29T04:20:50;15.30;99.90
54431;DHT22;40342;52.998;5.862;2022-07-29T04:23:16;15.30;99.90
54431;DHT22;40342;52.998;5.862;2022-07-29T04:25:42;15.30;99.90
54431;DHT22;40342;52.998;5.862;2022-07-29T04:28:08;15.20;99.90
54431;DHT22;40342;52.998;5.862;2022-07-29T04:30:36;15.20;99.90
54431;DHT22;40342;52.998;5.862;2022-07-29T04:33:03;15.20;99.90
54431;DHT22;40342;52.998;5.862;2022-07-29T04:35:30;15.20;99.90
54431;DHT22;40342;52.998;5.862;2022-07-29T04:37:58;15.20;99.90
54431;DHT22;40342;52.998;5.862;2022-07-29T04:40:24;15.20;99.90
54431;DHT22;40342;52.998;5.862;2022-07-29T04:42:49;15.20;99.90
54431;DHT22;40342;52.998;5.862;2022-07-29T04:45:15;15.20;99.90
54431;DHT22;40342;52.998;5.862;2022-07-29T04:47:40;15.20;99.90
54431;DHT22;40342;52.998;5.862;2022-07-29T04:50:07;15.20;99.90
54431;DHT22;40342;52.998;5.862;2022-07-29T04:52:33;15.20;99.90
54431;DHT22;40342;52.998;5.862;2022-07-29T04:54:59;15.20;99.90
54431;DHT22;40342;52.998;5.862;2022-07-29T04:57:25;15.20;99.90
54431;DHT22;40342;52.998;5.862;2022-07-29T04:59:51;15.20;99.90
54431;DHT22;40342;52.998;5.862;2022-07-29T05:02:16;15.20;99.90
54431;DHT22;40342;52.998;5.862;2022-07-29T05:04:42;15.20;99.90
54431;DHT22;40342;52.998;5.862;2022-07-29T05:07:07;15.20;99.90
54431;DHT22;40342;52.998;5.862;2022-07-29T05:09:34;15.20;99.90
54431;DHT22;40342;52.998;5.862;2022-07-29T05:11:59;15.20;99.90
54431;DHT22;40342;52.998;5.862;2022-07-29T05:14:25;15.20;99.90
54431;DHT22;40342;52.998;5.862;2022-07-29T05:16:50;15.10;99.90
54431;DHT22;40342;52.998;5.862;2022-07-29T05:19:17;15.20;99.90
54431;DHT22;40342;52.998;5.862;2022-07-29T05:21:44;15.20;99.90
54431;DHT22;40342;52.998;5.862;2022-07-29T05:24:10;15.20;99.90
54431;DHT22;40342;52.998;5.862;2022-07-29T05:26:35;15.20;99.90
54431;DHT22;40342;52.998;5.862;2022-07-29T05:29:01;15.20;99.90
54431;DHT22;40342;52.998;5.862;2022-07-29T05:31:27;15.20;99.90
54431;DHT22;40342;52.998;5.862;2022-07-29T05:33:52;15.20;99.90
54431;DHT22;40342;52.998;5.862;2022-07-29T05:36:18;15.20;99.90
54431;DHT22;40342;52.998;5.862;2022-07-29T05:38:43;15.20;99.90
54431;DHT22;40342;52.998;5.862;2022-07-29T05:41:09;15.30;99.90
54431;DHT22;40342;52.998;5.862;2022-07-29T05:43:34;15.30;99.90
54431;DHT22;40342;52.998;5.862;2022-07-29T05:46:00;15.30;99.90
54431;DHT22;40342;52.998;5.862;2022-07-29T05:48:25;15.30;99.90
54431;DHT22;40342;52.998;5.862;2022-07-29T05:50:51;15.30;99.90
54431;DHT22;40342;52.998;5.862;2022-07-29T05:53:17;15.30;99.90
54431;DHT22;40342;52.998;5.862;2022-07-29T05:55:42;15.40;99.90
54431;DHT22;40342;52.998;5.862;2022-07-29T05:58:08;15.40;99.90
54431;DHT22;40342;52.998;5.862;2022-07-29T06:00:33;15.50;99.90
54431;DHT22;40342;52.998;5.862;2022-07-29T06:03:00;15.50;99.90
54431;DHT22;40342;52.998;5.862;2022-07-29T06:05:25;15.60;99.90
54431;DHT22;40342;52.998;5.862;2022-07-29T06:07:51;15.60;99.90
54431;DHT22;40342;52.998;5.862;2022-07-29T06:10:16;15.60;99.90
54431;DHT22;40342;52.998;5.862;2022-07-29T06:12:42;15.70;99.90
54431;DHT22;40342;52.998;5.862;2022-07-29T06:15:08;15.70;99.90
54431;DHT22;40342;52.998;5.862;2022-07-29T06:17:34;15.80;99.90
54431;DHT22;40342;52.998;5.862;2022-07-29T06:20:00;15.80;99.90
54431;DHT22;40342;52.998;5.862;2022-07-29T06:22:25;15.90;99.90
54431;DHT22;40342;52.998;5.862;2022-07-29T06:24:51;15.90;99.90
54431;DHT22;40342;52.998;5.862;2022-07-29T06:27:16;16.00;99.90
54431;DHT22;40342;52.998;5.862;2022-07-29T06:29:42;16.00;99.90
54431;DHT22;40342;52.998;5.862;2022-07-29T06:32:07;16.00;99.90
54431;DHT22;40342;52.998;5.862;2022-07-29T06:34:35;16.10;99.90
54431;DHT22;40342;52.998;5.862;2022-07-29T06:37:05;16.20;99.90
54431;DHT22;40342;52.998;5.862;2022-07-29T06:39:31;16.30;99.90
54431;DHT22;40342;52.998;5.862;2022-07-29T06:41:56;16.30;99.90
54431;DHT22;40342;52.998;5.862;2022-07-29T06:44:22;16.30;99.90
54431;DHT22;40342;52.998;5.862;2022-07-29T06:46:47;16.30;99.90
54431;DHT22;40342;52.998;5.862;2022-07-29T06:49:15;16.40;99.90
54431;DHT22;40342;52.998;5.862;2022-07-29T06:51:41;16.50;99.90
54431;DHT22;40342;52.998;5.862;2022-07-29T06:54:06;16.60;99.90
54431;DHT22;40342;52.998;5.862;2022-07-29T06:56:34;16.60;99.90
54431;DHT22;40342;52.998;5.862;2022-07-29T06:59:03;16.70;99.90
54431;DHT22;40342;52.998;5.862;2022-07-29T07:01:29;16.70;99.90
54431;DHT22;40342;52.998;5.862;2022-07-29T07:03:54;16.80;99.90
54431;DHT22;40342;52.998;5.862;2022-07-29T07:06:20;16.90;99.90
54431;DHT22;40342;52.998;5.862;2022-07-29T07:08:46;16.90;99.90
54431;DHT22;40342;52.998;5.862;2022-07-29T07:11:12;17.00;99.90
54431;DHT22;40342;52.998;5.862;2022-07-29T07:13:37;17.00;99.90
54431;DHT22;40342;52.998;5.862;2022-07-29T07:16:04;17.10;99.90
54431;DHT22;40342;52.998;5.862;2022-07-29T07:18:29;17.10;99.90
54431;DHT22;40342;52.998;5.862;2022-07-29T07:20:56;17.20;99.90
54431;DHT22;40342;52.998;5.862;2022-07-29T07:23:21;17.20;99.90
54431;DHT22;40342;52.998;5.862;2022-07-29T07:25:47;17.30;99.90
54431;DHT22;40342;52.998;5.862;2022-07-29T07:28:15;17.30;99.90
54431;DHT22;40342;52.998;5.862;2022-07-29T07:30:41;17.40;99.90
54431;DHT22;40342;52.998;5.862;2022-07-29T07:33:06;17.50;99.90
54431;DHT22;40342;52.998;5.862;2022-07-29T07:35:32;17.50;99.90
54431;DHT22;40342;52.998;5.862;2022-07-29T07:37:58;17.60;99.90
54431;DHT22;40342;52.998;5.862;2022-07-29T07:40:23;17.70;99.90
54431;DHT22;40342;52.998;5.862;2022-07-29T07:42:49;17.70;99.90
54431;DHT22;40342;52.998;5.862;2022-07-29T07:45:15;17.80;99.90
54431;DHT22;40342;52.998;5.862;2022-07-29T07:47:41;17.80;99.90
54431;DHT22;40342;52.998;5.862;2022-07-29T07:50:10;17.80;99.90
54431;DHT22;40342;52.998;5.862;2022-07-29T07:52:46;17.80;99.90
54431;DHT22;40342;52.998;5.862;2022-07-29T07:55:11;17.80;99.90
54431;DHT22;40342;52.998;5.862;2022-07-29T07:57:37;17.90;99.90
54431;DHT22;40342;52.998;5.862;2022-07-29T08:00:03;17.90;99.90
54431;DHT22;40342;52.998;5.862;2022-07-29T08:02:29;17.90;99.90
54431;DHT22;40342;52.998;5.862;2022-07-29T08:04:55;17.90;99.90
54431;DHT22;40342;52.998;5.862;2022-07-29T08:07:20;17.90;99.90
54431;DHT22;40342;52.998;5.862;2022-07-29T08:09:46;17.90;99.90
54431;DHT22;40342;52.998;5.862;2022-07-29T08:12:11;17.90;99.90
54431;DHT22;40342;52.998;5.862;2022-07-29T08:14:37;17.90;99.90
54431;DHT22;40342;52.998;5.862;2022-07-29T08:17:03;17.90;99.90
54431;DHT22;40342;52.998;5.862;2022-07-29T08:19:29;17.90;99.90
54431;DHT22;40342;52.998;5.862;2022-07-29T08:21:54;17.90;99.90
54431;DHT22;40342;52.998;5.862;2022-07-29T08:24:21;17.90;99.90
54431;DHT22;40342;52.998;5.862;2022-07-29T08:27:05;17.90;99.90
54431;DHT22;40342;52.998;5.862;2022-07-29T08:29:30;17.90;99.90
54431;DHT22;40342;52.998;5.862;2022-07-29T08:31:56;17.90;99.90
54431;DHT22;40342;52.998;5.862;2022-07-29T08:34:21;17.90;99.90
54431;DHT22;40342;52.998;5.862;2022-07-29T08:36:47;17.90;99.90
54431;DHT22;40342;52.998;5.862;2022-07-29T08:39:13;17.80;99.90
54431;DHT22;40342;52.998;5.862;2022-07-29T08:41:38;17.90;99.90
54431;DHT22;40342;52.998;5.862;2022-07-29T08:44:04;17.80;99.90
54431;DHT22;40342;52.998;5.862;2022-07-29T08:46:29;17.80;99.90
54431;DHT22;40342;52.998;5.862;2022-07-29T08:48:55;17.80;99.90
54431;DHT22;40342;52.998;5.862;2022-07-29T08:51:21;17.80;99.90
54431;DHT22;40342;52.998;5.862;2022-07-29T08:53:48;17.80;99.90
54431;DHT22;40342;52.998;5.862;2022-07-29T08:56:19;17.80;99.90
54431;DHT22;40342;52.998;5.862;2022-07-29T08:58:46;17.80;99.90
54431;DHT22;40342;52.998;5.862;2022-07-29T09:01:16;17.80;99.90
54431;DHT22;40342;52.998;5.862;2022-07-29T09:03:44;17.80;99.90
54431;DHT22;40342;52.998;5.862;2022-07-29T09:06:13;17.80;99.90
54431;DHT22;40342;52.998;5.862;2022-07-29T09:08:39;17.80;99.90
54431;DHT22;40342;52.998;5.862;2022-07-29T09:11:05;17.80;99.90
54431;DHT22;40342;52.998;5.862;2022-07-29T09:13:32;17.80;99.90
54431;DHT22;40342;52.998;5.862;2022-07-29T09:15:58;17.80;99.90
54431;DHT22;40342;52.998;5.862;2022-07-29T09:18:41;17.80;99.90
54431;DHT22;40342;52.998;5.862;2022-07-29T09:21:08;17.80;99.90
54431;DHT22;40342;52.998;5.862;2022-07-29T09:24:11;17.90;99.90
54431;DHT22;40342;52.998;5.862;2022-07-29T09:26:46;17.90;99.90
54431;DHT22;40342;52.998;5.862;2022-07-29T09:29:14;18.00;99.90
54431;DHT22;40342;52.998;5.862;2022-07-29T09:31:41;18.00;99.90
54431;DHT22;40342;52.998;5.862;2022-07-29T09:34:08;18.10;99.90
54431;DHT22;40342;52.998;5.862;2022-07-29T09:36:45;18.10;99.90
54431;DHT22;40342;52.998;5.862;2022-07-29T09:39:12;18.20;99.90
54431;DHT22;40342;52.998;5.862;2022-07-29T09:41:49;18.30;99.90
54431;DHT22;40342;52.998;5.862;2022-07-29T09:44:15;18.40;99.90
54431;DHT22;40342;52.998;5.862;2022-07-29T09:49:20;18.50;99.90
54431;DHT22;40342;52.998;5.862;2022-07-29T09:51:46;18.50;99.90
54431;DHT22;40342;52.998;5.862;2022-07-29T09:54:22;18.50;99.90
54431;DHT22;40342;52.998;5.862;2022-07-29T09:56:48;18.50;99.90
54431;DHT22;40342;52.998;5.862;2022-07-29T09:59:14;18.60;99.90
54431;DHT22;40342;52.998;5.862;2022-07-29T10:01:40;18.60;99.90
54431;DHT22;40342;52.998;5.862;2022-07-29T10:04:06;18.60;99.90
54431;DHT22;40342;52.998;5.862;2022-07-29T10:06:32;18.60;99.90
54431;DHT22;40342;52.998;5.862;2022-07-29T10:09:10;18.60;99.90
54431;DHT22;40342;52.998;5.862;2022-07-29T10:11:36;18.60;99.90
54431;DHT22;40342;52.998;5.862;2022-07-29T10:14:03;18.60;99.90
54431;DHT22;40342;52.998;5.862;2022-07-29T10:16:30;18.60;99.90
54431;DHT22;40342;52.998;5.862;2022-07-29T10:18:58;18.60;99.90
54431;DHT22;40342;52.998;5.862;2022-07-29T10:21:25;18.60;99.90
54431;DHT22;40342;52.998;5.862;2022-07-29T10:23:52;18.60;99.90
54431;DHT22;40342;52.998;5.862;2022-07-29T10:26:19;18.60;99.90
54431;DHT22;40342;52.998;5.862;2022-07-29T10:28:44;18.60;99.90
54431;DHT22;40342;52.998;5.862;2022-07-29T10:31:22;18.60;99.90
54431;DHT22;40342;52.998;5.862;2022-07-29T10:34:16;18.60;99.90
54431;DHT22;40342;52.998;5.862;2022-07-29T10:37:01;18.70;99.90
54431;DHT22;40342;52.998;5.862;2022-07-29T10:39:47;18.70;99.90
54431;DHT22;40342;52.998;5.862;2022-07-29T10:42:17;18.70;99.90
54431;DHT22;40342;52.998;5.862;2022-07-29T10:44:43;18.70;99.90
54431;DHT22;40342;52.998;5.862;2022-07-29T10:47:23;18.70;99.90
54431;DHT22;40342;52.998;5.862;2022-07-29T10:50:03;18.80;99.90
54431;DHT22;40342;52.998;5.862;2022-07-29T10:52:54;18.80;99.90
54431;DHT22;40342;52.998;5.862;2022-07-29T10:55:38;18.90;99.90
54431;DHT22;40342;52.998;5.862;2022-07-29T10:58:17;18.90;99.90
54431;DHT22;40342;52.998;5.862;2022-07-29T11:00:45;19.00;99.90
54431;DHT22;40342;52.998;5.862;2022-07-29T11:06:09;19.10;99.90
54431;DHT22;40342;52.998;5.862;2022-07-29T11:08:34;19.10;99.90
54431;DHT22;40342;52.998;5.862;2022-07-29T11:16:13;19.30;99.90
54431;DHT22;40342;52.998;5.862;2022-07-29T11:21:39;19.40;99.90
54431;DHT22;40342;52.998;5.862;2022-07-29T11:24:19;19.60;99.90
54431;DHT22;40342;52.998;5.862;2022-07-29T11:27:19;19.60;99.90
54431;DHT22;40342;52.998;5.862;2022-07-29T11:29:50;19.70;99.90
54431;DHT22;40342;52.998;5.862;2022-07-29T11:32:16;19.80;99.90
54431;DHT22;40342;52.998;5.862;2022-07-29T11:34:45;19.90;99.90
54431;DHT22;40342;52.998;5.862;2022-07-29T11:44:58;20.30;99.90
54431;DHT22;40342;52.998;5.862;2022-07-29T11:47:28;20.40;99.90
54431;DHT22;40342;52.998;5.862;2022-07-29T11:49:56;20.50;99.90
54431;DHT22;40342;52.998;5.862;2022-07-29T11:52:22;20.50;99.90
54431;DHT22;40342;52.998;5.862;2022-07-29T11:54:50;20.60;99.90
54431;DHT22;40342;52.998;5.862;2022-07-29T11:57:19;20.60;99.90
54431;DHT22;40342;52.998;5.862;2022-07-29T11:59:47;20.70;99.90
54431;DHT22;40342;52.998;5.862;2022-07-29T12:02:13;20.80;99.90
54431;DHT22;40342;52.998;5.862;2022-07-29T12:04:49;20.90;99.90
54431;DHT22;40342;52.998;5.862;2022-07-29T12:07:15;21.10;99.90
54431;DHT22;40342;52.998;5.862;2022-07-29T12:09:49;21.20;99.90
54431;DHT22;40342;52.998;5.862;2022-07-29T12:12:16;21.30;99.90
54431;DHT22;40342;52.998;5.862;2022-07-29T12:14:42;21.50;99.90
54431;DHT22;40342;52.998;5.862;2022-07-29T12:17:28;21.70;99.90
54431;DHT22;40342;52.998;5.862;2022-07-29T12:19:55;21.90;99.90
54431;DHT22;40342;52.998;5.862;2022-07-29T12:22:35;22.00;99.90
54431;DHT22;40342;52.998;5.862;2022-07-29T12:25:11;22.00;99.90
54431;DHT22;40342;52.998;5.862;2022-07-29T12:27:37;22.10;99.90
54431;DHT22;40342;52.998;5.862;2022-07-29T12:30:09;22.20;99.90
54431;DHT22;40342;52.998;5.862;2022-07-29T12:32:41;22.40;99.90
54431;DHT22;40342;52.998;5.862;2022-07-29T12:35:09;22.60;99.90
54431;DHT22;40342;52.998;5.862;2022-07-29T12:37:36;22.80;99.90
54431;DHT22;40342;52.998;5.862;2022-07-29T12:40:04;22.90;99.90
54431;DHT22;40342;52.998;5.862;2022-07-29T12:42:30;23.00;99.90
54431;DHT22;40342;52.998;5.862;2022-07-29T12:44:56;23.20;99.90
54431;DHT22;40342;52.998;5.862;2022-07-29T12:47:22;23.40;99.90
54431;DHT22;40342;52.998;5.862;2022-07-29T12:49:49;23.60;99.90
54431;DHT22;40342;52.998;5.862;2022-07-29T12:52:29;23.70;99.90
54431;DHT22;40342;52.998;5.862;2022-07-29T12:54:55;23.90;99.90
54431;DHT22;40342;52.998;5.862;2022-07-29T12:57:21;24.00;99.90
54431;DHT22;40342;52.998;5.862;2022-07-29T13:00:11;24.20;99.90
54431;DHT22;40342;52.998;5.862;2022-07-29T13:02:38;24.50;99.90
54431;DHT22;40342;52.998;5.862;2022-07-29T13:05:05;24.60;99.90
54431;DHT22;40342;52.998;5.862;2022-07-29T13:07:33;24.70;99.90
54431;DHT22;40342;52.998;5.862;2022-07-29T13:12:37;24.80;99.90
54431;DHT22;40342;52.998;5.862;2022-07-29T13:15:15;24.80;99.90
54431;DHT22;40342;52.998;5.862;2022-07-29T13:17:44;24.80;99.90
54431;DHT22;40342;52.998;5.862;2022-07-29T13:20:11;25.00;99.90
54431;DHT22;40342;52.998;5.862;2022-07-29T13:22:41;25.00;99.70
54431;DHT22;40342;52.998;5.862;2022-07-29T13:25:08;25.00;99.40
54431;DHT22;40342;52.998;5.862;2022-07-29T13:27:36;24.90;99.50
54431;DHT22;40342;52.998;5.862;2022-07-29T13:30:05;24.80;99.00
54431;DHT22;40342;52.998;5.862;2022-07-29T13:32:32;24.80;99.30
54431;DHT22;40342;52.998;5.862;2022-07-29T13:35:02;24.80;99.20
54431;DHT22;40342;52.998;5.862;2022-07-29T13:37:28;24.80;99.10
54431;DHT22;40342;52.998;5.862;2022-07-29T13:39:55;24.80;99.10
54431;DHT22;40342;52.998;5.862;2022-07-29T13:42:22;24.80;99.70
54431;DHT22;40342;52.998;5.862;2022-07-29T13:44:48;25.10;99.90
54431;DHT22;40342;52.998;5.862;2022-07-29T13:47:16;25.20;99.80
54431;DHT22;40342;52.998;5.862;2022-07-29T13:49:42;25.30;97.80
54431;DHT22;40342;52.998;5.862;2022-07-29T13:52:07;25.20;97.00
54431;DHT22;40342;52.998;5.862;2022-07-29T13:54:33;25.20;97.70
54431;DHT22;40342;52.998;5.862;2022-07-29T13:57:03;25.10;98.40
54431;DHT22;40342;52.998;5.862;2022-07-29T13:59:29;25.20;98.10
54431;DHT22;40342;52.998;5.862;2022-07-29T14:01:54;25.30;97.70
54431;DHT22;40342;52.998;5.862;2022-07-29T14:04:20;25.40;97.60
54431;DHT22;40342;52.998;5.862;2022-07-29T14:06:46;25.50;97.00
54431;DHT22;40342;52.998;5.862;2022-07-29T14:09:12;25.60;96.60
54431;DHT22;40342;52.998;5.862;2022-07-29T14:11:38;25.60;96.30
54431;DHT22;40342;52.998;5.862;2022-07-29T14:14:06;25.70;95.90
54431;DHT22;40342;52.998;5.862;2022-07-29T14:16:32;25.70;95.50
54431;DHT22;40342;52.998;5.862;2022-07-29T14:18:57;25.70;95.70
54431;DHT22;40342;52.998;5.862;2022-07-29T14:21:23;25.70;96.10
54431;DHT22;40342;52.998;5.862;2022-07-29T14:23:48;25.90;96.20
54431;DHT22;40342;52.998;5.862;2022-07-29T14:26:14;26.00;96.30
54431;DHT22;40342;52.998;5.862;2022-07-29T14:28:39;26.10;95.30
54431;DHT22;40342;52.998;5.862;2022-07-29T14:31:05;26.20;95.40
54431;DHT22;40342;52.998;5.862;2022-07-29T14:33:31;26.20;95.30
54431;DHT22;40342;52.998;5.862;2022-07-29T14:35:56;26.20;94.80
54431;DHT22;40342;52.998;5.862;2022-07-29T14:38:22;26.10;95.40
54431;DHT22;40342;52.998;5.862;2022-07-29T14:40:47;26.10;95.10
54431;DHT22;40342;52.998;5.862;2022-07-29T14:43:13;26.10;95.40
54431;DHT22;40342;52.998;5.862;2022-07-29T14:45:40;26.10;95.20
54431;DHT22;40342;52.998;5.862;2022-07-29T14:48:06;26.00;94.60
54431;DHT22;40342;52.998;5.862;2022-07-29T14:50:32;25.90;94.50
54431;DHT22;40342;52.998;5.862;2022-07-29T14:52:58;25.90;94.90
54431;DHT22;40342;52.998;5.862;2022-07-29T14:55:24;25.90;95.10
54431;DHT22;40342;52.998;5.862;2022-07-29T14:57:50;25.90;95.00
54431;DHT22;40342;52.998;5.862;2022-07-29T15:00:16;25.90;94.90
54431;DHT22;40342;52.998;5.862;2022-07-29T15:02:42;26.00;94.80
54431;DHT22;40342;52.998;5.862;2022-07-29T15:05:08;26.10;94.90
54431;DHT22;40342;52.998;5.862;2022-07-29T15:07:33;26.10;95.30
54431;DHT22;40342;52.998;5.862;2022-07-29T15:09:59;26.20;94.60
54431;DHT22;40342;52.998;5.862;2022-07-29T15:12:24;26.30;94.40
54431;DHT22;40342;52.998;5.862;2022-07-29T15:14:50;26.30;94.40
54431;DHT22;40342;52.998;5.862;2022-07-29T15:17:16;26.30;94.40
54431;DHT22;40342;52.998;5.862;2022-07-29T15:19:41;26.40;94.10
54431;DHT22;40342;52.998;5.862;2022-07-29T15:22:07;26.30;93.70
54431;DHT22;40342;52.998;5.862;2022-07-29T15:24:32;26.30;93.40
54431;DHT22;40342;52.998;5.862;2022-07-29T15:26:58;26.30;93.70
54431;DHT22;40342;52.998;5.862;2022-07-29T15:29:24;26.30;93.30
54431;DHT22;40342;52.998;5.862;2022-07-29T15:31:49;26.30;93.70
54431;DHT22;40342;52.998;5.862;2022-07-29T15:34:15;26.30;94.10
54431;DHT22;40342;52.998;5.862;2022-07-29T15:36:41;26.30;93.90
54431;DHT22;40342;52.998;5.862;2022-07-29T15:39:06;26.30;93.50
54431;DHT22;40342;52.998;5.862;2022-07-29T15:41:33;26.30;93.20
54431;DHT22;40342;52.998;5.862;2022-07-29T15:43:58;26.30;92.50
54431;DHT22;40342;52.998;5.862;2022-07-29T15:46:24;26.30;92.50
54431;DHT22;40342;52.998;5.862;2022-07-29T15:49:08;26.40;92.50
54431;DHT22;40342;52.998;5.862;2022-07-29T15:51:34;26.30;92.80
54431;DHT22;40342;52.998;5.862;2022-07-29T15:54:04;26.30;93.30
54431;DHT22;40342;52.998;5.862;2022-07-29T15:56:30;26.30;93.50
54431;DHT22;40342;52.998;5.862;2022-07-29T15:58:56;26.30;93.00
54431;DHT22;40342;52.998;5.862;2022-07-29T16:01:21;26.30;92.90
54431;DHT22;40342;52.998;5.862;2022-07-29T16:03:47;26.30;93.10
54431;DHT22;40342;52.998;5.862;2022-07-29T16:06:13;26.30;92.80
54431;DHT22;40342;52.998;5.862;2022-07-29T16:08:38;26.30;93.10
54431;DHT22;40342;52.998;5.862;2022-07-29T16:11:04;26.30;93.10